Macon, GA

2:25 AM EDT on May 26, 2015 (GMT -0400)
Ogelthorpe Homes | | Change Station
CLOSE
Current Station
Personal Weather Station
Location: Macon, GA
Elevation: 390 ft
Nearby Weather Stations

Elev 390 ft 32.83 °N, 83.64 °W | Updated 13 seconds ago

Partly Cloudy
Partly Cloudy
71.6 °F
Feels Like 71.6 °F
N
3.0
Wind Variable Wind from East
Gusts 8.0 mph

Today
High -- | Low -- °F
--% Chance of Precip.
Yesterday
High -- | Low -- °F
Precip. -- in
6:29 AM 8:34 PM
First Quarter, 55% visible
Pressure 30.19 in
Visibility 10.0 miles
Clouds Few 1600 ft
Scattered Clouds 5000 ft
Dew Point 70 °F
Humidity 93%
Rainfall 0.00 in
Snow Depth Not available.
UV 0 out of 12
Pollen 4.10 out of 12
Air Quality Not available.
Flu Activity Sporadic
METAR KMCN 260553Z AUTO 13004KT 10SM FEW016 SCT050 22/21 A3020 RMK AO2 SLP223 T02170206 10239 20211 50001 TSNO

More Conditions Fewer Conditions

Pressure 30.19 in
Visibility 10.0 miles
Clouds Few 1600 ft
Scattered Clouds 5000 ft
Dew Point 70 °F
Humidity 93%
Rainfall 0.00 in
Snow Depth Not available.
UV 0 out of 12
Pollen 4.10 out of 12
Air Quality Not available.
Flu Activity Sporadic
METAR KMCN 260553Z AUTO 13004KT 10SM FEW016 SCT050 22/21 A3020 RMK AO2 SLP223 T02170206 10239 20211 50001 TSNO

More Conditions Fewer Conditions

10-Day Weather Forecast

Almanac

Astronomy

May. 26, 2015 Rise Set
Actual Time
Civil Twilight
Nautical Twilight
Astronomical Twilight
Moon
Length of Visible Light
Length of Day
Tomorrow will be .
, % of the Moon is Illuminated

Today's Extremes

State Highs State Lows

Community

WunderPhotos

Upload Photos

1,824,294 photos uploaded!

WunderBlogs® & News

Nearby

Air Quality

  Air Quality AQ Index Pollutant
Not available.

Snow Depth

Station Depth Elevation

Earthquake Activity

City Distance Mag. Time & Date
Minimum magnitude displayed is 2.5.

Coastal Water Temperatures

Place Temperature

Stations

Nearby Weather Stations

Station Location Temp. Windchill Dew Point Humidity Wind Precip. Elev Updated Type